Latest Weather Observations for Karratha

IDW60801

Issued at 6:04 pm WST Sunday 24 January 2021 (issued every 10 minutes, with the page automatically refreshed every 10 minutes)

About weather observations | Map of weather stations | Latest weather observations for WA | Other Formats
Station Details ID: 004083 Name: KARRATHA AERO Lat: -20.71 Lon: 116.77 Height: 5.3 m
Data from the previous 72 hours. | See also: Recent months at Karratha
Date/Time
WST
Temp
°C
App
Temp
°C
Dew
Point
°C
Rel
Hum
%
Delta-T
°C
Wind Press
QNH
hPa
Press
MSL
hPa
Rain since
9am
mm
Dir  Spd
km/h
Gust
km/h
Spd
kts
Gust
kts
24/06:00pm 31.4 27.9 23.0 61 5.8 W 46 54 25 29 1003.0 1002.9 0.0
24/05:30pm 31.8 28.5 23.3 60 5.9 W 46 54 25 29 1002.9 1002.8 0.0
24/05:00pm 32.6 29.8 23.5 58 6.3 W 44 56 24 30 1002.7 1002.6 0.0
24/04:30pm 32.1 28.3 23.1 59 6.2 W 48 57 26 31 1002.5 1002.4 0.0
24/04:00pm 33.3 30.8 23.0 54 7.1 W 41 50 22 27 1002.7 1002.6 0.0
24/03:30pm 33.0 29.2 22.4 53 7.3 W 46 54 25 29 1002.8 1002.7 0.0
24/03:00pm 33.6 30.0 22.1 51 7.9 W 44 52 24 28 1003.1 1003.0 0.0
24/02:30pm 33.8 30.1 21.9 49 8.1 W 44 54 24 29 1003.5 1003.4 0.0
24/02:00pm 33.4 29.3 21.9 51 7.9 W 46 56 25 30 1003.7 1003.6 0.0
24/01:30pm 33.5 29.7 21.6 49 8.1 W 44 54 24 29 1004.0 1003.9 0.0
24/01:00pm 33.3 29.4 21.1 48 8.2 W 43 50 23 27 1004.3 1004.2 0.0
24/12:30pm 33.3 29.6 21.5 50 8.0 W 43 50 23 27 1004.8 1004.7 0.0
24/12:00pm 33.0 29.7 20.9 49 8.1 W 39 46 21 25 1005.4 1005.3 0.0
24/11:30am 33.6 30.7 19.3 43 9.4 W 33 41 18 22 1005.9 1005.8 0.0
24/11:00am 34.0 29.2 15.5 33 11.6 WSW 35 41 19 22 1006.0 1005.9 0.0
24/10:30am 33.6 28.8 15.6 34 11.2 WSW 35 43 19 23 1006.3 1006.2 0.0
24/10:00am 32.6 27.6 15.1 34 10.8 WSW 35 43 19 23 1006.6 1006.5 0.0
24/09:30am 31.8 27.6 16.1 38 9.8 WSW 33 39 18 21 1006.7 1006.6 0.0
24/09:00am 30.7 26.0 15.9 40 9.2 WSW 35 43 19 23 1006.7 1006.6 0.0
24/08:30am 29.5 25.7 16.7 46 8.0 WSW 32 39 17 21 1006.8 1006.7 0.0
24/08:00am 28.0 24.6 18.1 55 6.3 WSW 33 41 18 22 1006.7 1006.6 0.0
24/07:30am 27.4 23.9 18.7 59 5.6 WSW 35 44 19 24 1006.5 1006.4 0.0
24/07:00am 26.8 23.5 19.2 63 4.9 WSW 35 43 19 23 1006.2 1006.1 0.0
24/06:30am 26.4 23.4 19.0 63 4.7 WSW 33 41 18 22 1005.6 1005.5 0.0
24/06:00am 26.4 23.7 19.3 65 4.6 WSW 32 41 17 22 1005.1 1005.0 0.0
24/05:30am 26.6 23.9 19.2 64 4.8 WSW 32 41 17 22 1004.6 1004.5 0.0
24/05:00am 26.8 24.5 19.4 64 4.8 WSW 30 37 16 20 1004.1 1004.0 0.0
24/04:30am 27.0 25.2 19.6 64 4.8 WSW 28 35 15 19 1003.9 1003.8 0.0
24/04:00am 27.2 25.1 19.8 64 4.8 WSW 30 37 16 20 1003.6 1003.5 0.0
24/03:30am 27.4 25.4 20.0 64 4.8 WSW 30 35 16 19 1003.5 1003.4 0.0
24/03:00am 27.7 25.5 20.3 64 4.9 WSW 32 39 17 21 1003.5 1003.4 0.0
24/02:30am 28.1 25.9 20.4 63 5.1 WSW 32 37 17 20 1003.5 1003.4 0.0
24/02:00am 28.4 26.4 20.7 63 5.1 WSW 32 39 17 21 1003.6 1003.5 0.0
24/01:30am 28.8 27.2 21.6 65 4.8 WSW 32 39 17 21 1003.9 1003.8 0.0
24/01:00am 28.9 28.6 23.3 72 3.9 WSW 30 35 16 19 1004.1 1004.0 0.0
24/12:30am 28.9 28.0 24.5 77 3.1 WSW 37 41 20 22 1004.2 1004.1 0.0
24/12:00am 29.0 28.6 24.6 77 3.1 WSW 35 44 19 24 1004.6 1004.5 0.0
 
Date/Time
WST
Temp
°C
App
Temp
°C
Dew
Point
°C
Rel
Hum
%
Delta-T
°C
Wind Press
QNH
hPa
Press
MSL
hPa
Rain since
9am
mm
Dir  Spd
km/h
Gust
km/h
Spd
kts
Gust
kts
23/11:30pm 29.2 27.9 24.5 76 3.3 WSW 39 52 21 28 1004.7 1004.6 0.0
23/11:00pm 29.4 28.9 24.5 75 3.4 WSW 35 44 19 24 1005.0 1004.9 0.0
23/10:30pm 29.6 28.5 24.7 75 3.4 WSW 39 48 21 26 1005.0 1004.9 0.0
23/10:00pm 29.7 29.3 24.6 74 3.6 WSW 35 48 19 26 1005.1 1005.0 0.0
23/09:30pm 29.8 29.2 24.4 73 3.8 WSW 35 44 19 24 1004.9 1004.8 0.0
23/09:00pm 30.0 29.1 24.4 72 3.9 WSW 37 46 20 25 1004.7 1004.6 0.0
23/08:30pm 30.1 29.3 24.7 73 3.8 WSW 37 46 20 25 1004.6 1004.5 0.0
23/08:00pm 30.0 29.4 24.9 74 3.6 WSW 37 50 20 27 1004.3 1004.2 0.0
23/07:30pm 30.4 28.9 24.8 72 3.9 W 41 52 22 28 1004.0 1003.9 0.0
23/07:00pm 30.6 28.9 25.0 72 3.9 W 43 54 23 29 1003.6 1003.5 0.0
23/06:30pm 30.9 28.7 24.5 68 4.5 W 44 54 24 29 1003.1 1003.0 0.0
23/06:00pm 31.4 28.6 24.8 68 4.7 W 48 59 26 32 1002.8 1002.7 0.0
23/05:30pm 32.0 28.5 24.3 63 5.4 W 50 57 27 31 1002.6 1002.5 0.0
23/05:00pm 32.6 29.0 24.1 61 6.0 W 50 59 27 32 1002.3 1002.2 0.0
23/04:30pm 33.0 28.9 23.3 56 6.7 W 50 59 27 32 1002.1 1002.0 0.0
23/04:00pm 33.4 30.0 23.7 56 6.8 W 48 59 26 32 1001.8 1001.7 0.0
23/03:30pm 33.2 29.7 22.9 54 7.1 W 46 57 25 31 1002.0 1001.9 0.0
23/03:00pm 33.9 29.9 22.7 52 7.7 W 48 57 26 31 1002.0 1001.9 0.0
23/02:30pm 34.0 31.2 23.1 53 7.5 W 43 52 23 28 1001.9 1001.8 0.0
23/02:00pm 34.5 31.1 23.2 51 7.9 W 46 52 25 28 1001.9 1001.8 0.0
23/01:30pm 34.6 32.1 22.3 48 8.4 W 39 48 21 26 1001.9 1001.8 0.0
23/01:00pm 33.8 31.8 22.6 52 7.7 W 37 46 20 25 1002.3 1002.2 0.0
23/12:30pm 34.3 33.1 23.3 52 7.6 W 35 43 19 23 1002.4 1002.3 0.0
23/12:00pm 34.2 33.2 21.9 48 8.4 WNW 30 39 16 21 1002.8 1002.7 0.0
23/11:30am 33.9 32.5 19.6 43 9.5 WNW 26 32 14 17 1003.2 1003.1 0.0
23/11:00am 33.9 33.3 20.6 45 8.9 W 24 32 13 17 1003.5 1003.4 0.0
23/10:30am 32.7 32.0 19.6 46 8.6 W 22 28 12 15 1003.7 1003.6 0.0
23/10:00am 30.9 30.9 20.2 53 7.1 W 20 26 11 14 1004.1 1004.0 0.0
23/09:30am 30.3 29.7 20.5 55 6.5 WSW 24 32 13 17 1004.2 1004.1 0.0
23/09:00am 29.5 28.9 20.4 58 6.0 WSW 24 30 13 16 1004.0 1003.9 0.0
23/08:30am 28.2 28.2 21.0 65 4.8 WSW 22 26 12 14 1003.9 1003.8 0.0
23/08:00am 27.4 26.9 20.7 67 4.4 WSW 24 28 13 15 1003.7 1003.6 0.0
23/07:30am 26.9 25.4 21.0 70 3.9 WSW 30 33 16 18 1003.4 1003.3 0.0
23/07:00am 26.4 25.6 20.9 72 3.6 WSW 26 32 14 17 1003.1 1003.0 0.0
23/06:30am 26.2 25.0 20.8 72 3.6 WSW 28 32 15 17 1002.7 1002.6 0.0
23/06:00am 26.3 25.8 20.8 71 3.6 WSW 24 32 13 17 1002.1 1002.0 0.0
23/05:30am 26.7 26.5 20.5 69 4.1 WSW 22 28 12 15 1001.7 1001.6 0.0
23/05:00am 27.0 26.1 20.6 68 4.2 WSW 26 32 14 17 1001.4 1001.3 0.0
23/04:30am 27.4 25.3 20.5 66 4.5 WSW 32 39 17 21 1000.9 1000.8 0.0
23/04:00am 27.8 25.7 20.6 65 4.8 WSW 32 39 17 21 1000.9 1000.8 0.0
23/03:30am 28.3 26.0 20.6 63 5.1 WSW 33 41 18 22 1000.7 1000.6 0.0
23/03:00am 28.9 26.2 20.4 60 5.6 WSW 35 41 19 22 1000.6 1000.5 0.0
23/02:30am 29.3 27.2 20.5 59 5.8 WSW 32 41 17 22 1000.8 1000.7 0.0
23/02:00am 29.5 28.2 20.6 58 5.9 WSW 28 35 15 19 1001.2 1001.1 0.0
23/01:30am 29.9 31.5 23.8 70 4.2 WSW 22 30 12 16 1001.1 1001.0 0.0
23/01:00am 29.8 33.2 25.8 79 2.8 WSW 19 26 10 14 1001.1 1001.0 0.0
23/12:30am 29.6 32.7 25.4 78 3.0 WSW 19 24 10 13 1001.7 1001.6 0.0
23/12:00am 29.8 32.3 24.7 74 3.6 WSW 20 26 11 14 1002.1 1002.0 0.0
 
Date/Time
WST
Temp
°C
App
Temp
°C
Dew
Point
°C
Rel
Hum
%
Delta-T
°C
Wind Press
QNH
hPa
Press
MSL
hPa
Rain since
9am
mm
Dir  Spd
km/h
Gust
km/h
Spd
kts
Gust
kts
22/11:30pm 29.9 32.7 25.2 76 3.3 SW 20 24 11 13 1002.6 1002.5 0.0
22/11:00pm 30.3 32.3 25.1 73 3.7 WSW 24 32 13 17 1002.9 1002.8 0.0
22/10:30pm 30.8 32.1 24.7 70 4.3 WSW 26 35 14 19 1003.0 1002.9 0.0
22/10:00pm 31.3 31.7 23.1 61 5.7 WSW 26 33 14 18 1002.9 1002.8 0.0
22/09:30pm 31.7 33.3 23.2 60 5.9 W 20 28 11 15 1002.8 1002.7 0.0
22/09:00pm 30.5 34.2 23.2 65 5.0 NE 9 13 5 7 1002.8 1002.7 0.0
22/08:30pm 31.2 34.1 21.7 57 6.4 NE 9 11 5 6 1002.6 1002.5 0.0
22/08:00pm 31.0 33.0 21.5 57 6.4 SW 13 22 7 12 1002.1 1002.0 0.0
22/07:30pm 31.9 31.9 24.7 65 5.1 WSW 33 39 18 21 1001.9 1001.8 0.0
22/07:00pm 31.7 32.0 25.8 71 4.2 SW 35 44 19 24 1001.8 1001.7 0.0
22/06:51pm 31.7 32.1 26.0 72 4.1 WSW 35 44 19 24 1001.8 1001.7 0.0
22/06:30pm 32.3 31.2 25.4 67 4.9 W 41 50 22 27 1000.3 1000.2 0.0
22/06:00pm 32.9 32.2 25.4 64 5.3 W 39 48 21 26 999.7 999.6 0.0
22/05:30pm 33.2 32.9 26.0 66 5.2 W 39 48 21 26 999.8 999.7 0.0
22/05:00pm 34.3 34.9 25.7 61 6.2 WNW 33 44 18 24 999.9 999.8 0.0
22/04:30pm 34.0 34.6 25.4 61 6.1 WNW 32 41 17 22 1000.2 1000.1 0.0
22/04:00pm 34.3 35.1 25.1 58 6.6 WNW 30 43 16 23 1000.6 1000.5 0.0
22/03:30pm 34.2 35.1 25.3 59 6.3 WNW 30 37 16 20 1000.8 1000.7 0.0
22/03:00pm 35.1 34.2 22.8 49 8.5 WNW 32 41 17 22 1000.9 1000.8 0.0
22/02:30pm 35.0 33.8 21.6 45 9.1 WNW 30 39 16 21 1001.1 1001.0 0.0
22/02:00pm 35.2 34.9 23.2 49 8.4 WNW 30 35 16 19 1001.3 1001.2 0.0
22/01:30pm 35.1 35.1 22.4 47 8.7 WNW 26 32 14 17 1001.7 1001.6 0.0
22/01:00pm 35.2 36.4 22.2 47 9.0 NW 19 26 10 14 1002.1 1002.0 0.0
22/12:30pm 34.4 36.9 22.5 50 8.2 NW 13 20 7 11 1002.9 1002.8 0.0
22/12:00pm 33.9 35.9 23.0 53 7.6 WNW 17 22 9 12 1003.6 1003.5 0.0
22/11:30am 33.8 35.8 22.9 53 7.5 NW 17 20 9 11 1004.1 1004.0 0.0
22/11:00am 32.7 35.3 23.9 60 6.1 WNW 17 20 9 11 1004.6 1004.5 0.0
22/10:30am 32.2 35.0 23.7 61 5.9 WNW 15 20 8 11 1004.6 1004.5 0.0
22/10:00am 32.2 36.3 22.9 58 6.4 E 6 9 3 5 1005.2 1005.1 0.0
22/09:30am 31.5 35.8 23.3 61 5.7 SW 6 11 3 6 1005.2 1005.1 0.0
22/09:00am 31.3 35.2 22.6 60 6.0 SE 6 9 3 5 1005.4 1005.3 19.4
22/08:30am 30.6 33.7 22.2 61 5.7 SE 9 13 5 7 1005.4 1005.3 19.4
22/08:00am 29.6 32.3 22.8 67 4.7 SE 13 17 7 9 1005.6 1005.5 19.4
22/07:30am 28.8 32.1 23.9 75 3.4 SE 13 15 7 8 1005.7 1005.6 19.4
22/07:00am 27.8 31.8 23.8 79 2.8 SE 9 11 5 6 1005.4 1005.3 19.4
22/06:30am 27.3 31.3 24.4 84 2.0 SE 11 13 6 7 1005.4 1005.3 19.4
22/06:00am 26.7 30.7 25.1 91 1.1 SSE 13 17 7 9 1005.4 1005.3 19.4
22/05:30am 26.5 30.7 25.3 93 0.8 S 13 15 7 8 1004.7 1004.6 19.4
22/05:00am 26.7 30.3 24.4 87 1.6 SE 13 17 7 9 1004.5 1004.4 19.4
22/04:30am 26.7 31.2 25.8 95 0.6 SSE 13 15 7 8 1003.9 1003.8 19.4
22/04:00am 26.9 32.0 26.2 96 0.5 SSW 11 13 6 7 1003.5 1003.4 19.4
22/03:30am 27.3 32.6 25.9 92 1.0 SE 9 11 5 6 1003.1 1003.0 19.4
22/03:00am 27.5 32.4 25.9 91 1.1 SE 11 15 6 8 1002.9 1002.8 19.4
22/02:30am 27.8 32.6 26.2 91 1.1 ESE 13 17 7 9 1002.9 1002.8 19.4
22/02:00am 28.3 32.2 25.5 85 2.0 ENE 15 19 8 10 1002.9 1002.8 19.4
22/01:30am 27.8 32.3 25.8 89 1.4 NE 13 15 7 8 1003.6 1003.5 19.4
22/01:00am 27.6 32.3 25.6 89 1.4 NE 11 11 6 6 1004.0 1003.9 19.4
22/12:30am 27.8 32.8 25.4 87 1.7 N 9 13 5 7 1004.6 1004.5 19.4
22/12:00am 27.3 33.3 25.5 90 1.3 ENE 4 7 2 4 1005.4 1005.3 19.4
 
Date/Time
WST
Temp
°C
App
Temp
°C
Dew
Point
°C
Rel
Hum
%
Delta-T
°C
Wind Press
QNH
hPa
Press
MSL
hPa
Rain since
9am
mm
Dir  Spd
km/h
Gust
km/h
Spd
kts
Gust
kts
21/11:30pm 27.5 32.4 24.7 85 1.9 WNW 7 9 4 5 1005.7 1005.6 19.4
21/11:00pm 27.4 30.5 24.8 86 1.8 WNW 17 22 9 12 1006.1 1006.0 19.4
21/10:30pm 27.0 26.9 24.3 85 1.9 W 32 39 17 21 1006.4 1006.3 19.4
21/10:00pm 26.0 27.7 24.0 89 1.4 NW 22 28 12 15 1006.3 1006.2 19.4
21/09:30pm 25.3 27.7 24.6 96 0.5 NW 20 32 11 17 1006.0 1005.9 19.4
21/09:23pm 24.9 28.3 24.6 98 0.2 NW 15 26 8 14 1006.4 1006.3 19.2
21/09:17pm 24.6 27.0 24.3 98 0.2 W 19 24 10 13 1006.5 1006.4 19.2
21/09:13pm 24.9 26.9 24.6 98 0.2 SW 22 28 12 15 1006.5 1006.4 19.0
21/09:08pm 24.7 26.6 24.4 98 0.2 SSW 22 28 12 15 1006.7 1006.6 19.0
21/09:00pm 24.5 24.4 24.2 98 0.2 S 32 48 17 26 1007.0 1006.9 18.8
21/08:39pm 26.0 24.6 22.9 83 2.1 SE 35 46 19 25 1006.8 1006.7 2.2
21/08:37pm 27.2 26.4 22.4 75 3.2 SE 30 46 16 25 1006.8 1006.7 0.4
21/08:31pm 29.4 31.9 21.1 61 5.5 NE 9 46 5 25 1006.7 1006.6 0.0
21/08:30pm 30.8 34.2 21.6 58 6.2 NNE 6 41 3 22 1006.7 1006.6 0.0
21/08:00pm 31.5 35.6 25.8 72 4.1 N 15 22 8 12 1006.1 1006.0 0.0
21/07:30pm 31.7 34.5 25.3 69 4.5 N 20 30 11 16 1004.7 1004.6 0.0
21/07:00pm 32.3 34.4 24.1 62 5.7 NNW 20 26 11 14 1004.7 1004.6 0.0
21/06:30pm 32.8 36.2 25.3 64 5.3 NW 17 22 9 12 1005.0 1004.9 0.0

Other formats

Comma delimited format used in spreadsheet applications
http://www.bom.gov.au/fwo/IDW60801/IDW60801.95307.axf

JavaScript Object Notation format (JSON) in row-major order
http://www.bom.gov.au/fwo/IDW60801/IDW60801.95307.json

Data quality

Most of these data are generated automatically and are frequently updated. Quality checks on data are not normally performed. It is possible for incorrect values to appear. Refer to information at About Latest Weather Observations and please check the disclaimer before using these data.